createdAt,value
2023-01-25T00:00:44.201Z,20
2023-01-25T00:01:44.201Z,18
2023-01-25T00:02:44.186Z,17
2023-01-25T00:03:44.250Z,15
2023-01-25T00:04:44.201Z,17
2023-01-25T00:05:44.201Z,14
2023-01-25T00:06:44.186Z,14
2023-01-25T00:07:44.202Z,14
2023-01-25T00:08:44.202Z,14
2023-01-25T00:09:44.202Z,16
2023-01-25T00:10:44.187Z,16
2023-01-25T00:11:44.202Z,15
2023-01-25T00:12:44.244Z,15
2023-01-25T00:13:44.202Z,17
2023-01-25T00:14:44.187Z,18
2023-01-25T00:15:44.202Z,17
2023-01-25T00:16:44.203Z,17
2023-01-25T00:17:44.203Z,16
2023-01-25T00:18:44.187Z,18
2023-01-25T00:19:44.203Z,13
2023-01-25T00:20:44.203Z,15
2023-01-25T00:21:44.188Z,17
2023-01-25T00:22:44.188Z,15
2023-01-25T00:23:44.203Z,14
2023-01-25T00:24:44.204Z,15
2023-01-25T00:25:44.188Z,15
2023-01-25T00:26:44.188Z,14
2023-01-25T00:27:44.204Z,15
2023-01-25T00:28:44.204Z,15
2023-01-25T00:29:44.189Z,15
2023-01-25T00:30:44.204Z,17
2023-01-25T00:31:44.204Z,16
2023-01-25T00:32:44.204Z,15
2023-01-25T00:33:44.189Z,15
2023-01-25T00:34:44.204Z,14
2023-01-25T00:35:44.205Z,14
2023-01-25T00:36:44.204Z,14
2023-01-25T00:37:44.189Z,15
2023-01-25T00:38:44.205Z,15
2023-01-25T00:39:44.205Z,15
2023-01-25T00:40:44.205Z,13
2023-01-25T00:41:44.190Z,13
2023-01-25T00:42:44.205Z,13
2023-01-25T00:43:44.206Z,12
2023-01-25T00:44:44.190Z,13
2023-01-25T00:45:44.190Z,12
2023-01-25T00:46:44.206Z,15
2023-01-25T00:47:44.205Z,12
2023-01-25T00:48:44.190Z,12
2023-01-25T00:49:44.206Z,14
2023-01-25T00:50:44.206Z,14
2023-01-25T00:51:44.206Z,14
2023-01-25T00:52:44.191Z,15
2023-01-25T00:53:44.206Z,14
2023-01-25T00:54:44.207Z,15
2023-01-25T00:55:44.206Z,16
2023-01-25T00:56:44.191Z,16
2023-01-25T00:57:44.207Z,15
2023-01-25T00:58:44.207Z,15
2023-01-25T00:59:44.207Z,14
2023-01-25T01:00:44.192Z,15
2023-01-25T01:01:44.207Z,16
2023-01-25T01:02:44.208Z,14
2023-01-25T01:03:44.192Z,11
2023-01-25T01:04:44.192Z,13
2023-01-25T01:05:44.207Z,15
2023-01-25T01:06:44.208Z,11
2023-01-25T01:07:44.192Z,10
2023-01-25T01:08:44.208Z,11
2023-01-25T01:09:44.208Z,11
2023-01-25T01:10:44.208Z,12
2023-01-25T01:11:44.193Z,11
2023-01-25T01:12:44.208Z,10
2023-01-25T01:13:44.274Z,11
2023-01-25T01:14:44.208Z,15
2023-01-25T01:15:44.193Z,16
2023-01-25T01:16:44.208Z,17
2023-01-25T01:17:44.209Z,17
2023-01-25T01:18:44.209Z,18
2023-01-25T01:19:44.193Z,20
2023-01-25T01:20:44.209Z,18
2023-01-25T01:21:44.209Z,22
2023-01-25T01:22:44.194Z,20
2023-01-25T01:23:44.194Z,19
2023-01-25T01:24:44.209Z,21
2023-01-25T01:25:44.210Z,19
2023-01-25T01:26:44.194Z,18
2023-01-25T01:27:44.194Z,18
2023-01-25T01:28:44.209Z,18
2023-01-25T01:29:44.210Z,17
2023-01-25T01:30:44.194Z,17
2023-01-25T01:31:44.210Z,18
2023-01-25T01:32:44.210Z,17
2023-01-25T01:33:44.210Z,19
2023-01-25T01:34:44.195Z,20
2023-01-25T01:35:44.210Z,20
2023-01-25T01:36:44.210Z,19
2023-01-25T01:37:44.210Z,18
2023-01-25T01:38:44.195Z,17
2023-01-25T01:39:44.211Z,15
2023-01-25T01:40:44.211Z,15
2023-01-25T01:41:44.211Z,14
2023-01-25T01:42:44.196Z,13
2023-01-25T01:43:44.211Z,14
2023-01-25T01:44:44.212Z,17
2023-01-25T01:45:44.211Z,16
2023-01-25T01:46:44.196Z,13
2023-01-25T01:47:44.211Z,14
2023-01-25T01:48:44.212Z,15
2023-01-25T01:49:44.196Z,17
2023-01-25T01:50:44.196Z,17
2023-01-25T01:51:44.212Z,20
2023-01-25T01:52:44.220Z,15
2023-01-25T01:53:44.197Z,17
2023-01-25T01:54:44.212Z,18
2023-01-25T01:55:44.212Z,16
2023-01-25T01:56:44.212Z,17
2023-01-25T01:57:44.197Z,16
2023-01-25T01:58:44.213Z,14
2023-01-25T01:59:44.255Z,15
2023-01-25T02:00:44.212Z,18
2023-01-25T02:01:44.197Z,15
2023-01-25T02:02:44.213Z,15
2023-01-25T02:03:44.214Z,14
2023-01-25T02:04:44.213Z,16
2023-01-25T02:05:44.198Z,15
2023-01-25T02:06:44.213Z,13
2023-01-25T02:07:44.214Z,15
2023-01-25T02:08:44.198Z,15
2023-01-25T02:09:44.198Z,13
2023-01-25T02:10:44.213Z,14
2023-01-25T02:11:44.214Z,14
2023-01-25T02:12:44.198Z,15
2023-01-25T02:13:44.214Z,15
2023-01-25T02:14:44.214Z,16
2023-01-25T02:15:44.214Z,14
2023-01-25T02:16:44.199Z,13
2023-01-25T02:17:44.214Z,12
2023-01-25T02:18:44.280Z,11
2023-01-25T02:19:44.214Z,13
2023-01-25T02:20:44.199Z,14
2023-01-25T02:21:44.214Z,12
2023-01-25T02:22:44.215Z,11
2023-01-25T02:23:44.215Z,13
2023-01-25T02:24:44.199Z,15
2023-01-25T02:25:44.215Z,17
2023-01-25T02:26:44.215Z,15
2023-01-25T02:27:44.200Z,14
2023-01-25T02:28:44.200Z,14
2023-01-25T02:29:44.215Z,14
2023-01-25T02:30:44.216Z,18
2023-01-25T02:31:44.200Z,18
2023-01-25T02:32:44.200Z,17
2023-01-25T02:33:44.215Z,16
2023-01-25T02:34:44.216Z,15
2023-01-25T02:35:44.200Z,13
2023-01-25T02:36:44.216Z,13
2023-01-25T02:37:44.216Z,13
2023-01-25T02:38:44.216Z,12
2023-01-25T02:39:44.201Z,10
2023-01-25T02:40:44.216Z,12
2023-01-25T02:41:44.217Z,9
2023-01-25T02:42:44.216Z,13
2023-01-25T02:43:44.201Z,12
2023-01-25T02:44:44.217Z,11
2023-01-25T02:45:44.217Z,13
2023-01-25T02:46:44.217Z,12
2023-01-25T02:47:44.202Z,13
2023-01-25T02:48:44.217Z,12
2023-01-25T02:49:44.218Z,14
2023-01-25T02:50:44.202Z,14
2023-01-25T02:51:44.202Z,13
2023-01-25T02:52:44.217Z,15
2023-01-25T02:53:44.218Z,13
2023-01-25T02:54:44.202Z,16
2023-01-25T02:55:44.218Z,15
2023-01-25T02:56:44.218Z,15
2023-01-25T02:57:44.218Z,16
2023-01-25T02:58:44.203Z,19
2023-01-25T02:59:44.218Z,16
2023-01-25T03:00:44.244Z,15
2023-01-25T03:02:44.203Z,18
2023-01-25T03:03:44.218Z,19
2023-01-25T03:04:44.219Z,18
2023-01-25T03:05:44.218Z,16
2023-01-25T03:06:44.203Z,15
2023-01-25T03:07:44.243Z,17
2023-01-25T03:08:44.219Z,15
2023-01-25T03:09:44.204Z,14
2023-01-25T03:10:44.204Z,18
2023-01-25T03:11:44.219Z,19
2023-01-25T03:12:44.220Z,17
2023-01-25T03:13:44.204Z,15
2023-01-25T03:14:44.219Z,15
2023-01-25T03:15:44.220Z,14
2023-01-25T03:16:44.219Z,14
2023-01-25T03:17:44.204Z,14
2023-01-25T03:18:44.220Z,11
2023-01-25T03:19:44.220Z,11
2023-01-25T03:20:44.220Z,12
2023-01-25T03:21:44.205Z,12
2023-01-25T03:22:44.220Z,12
2023-01-25T03:23:44.221Z,16
2023-01-25T03:24:44.220Z,15
2023-01-25T03:25:44.205Z,12
2023-01-25T03:26:44.221Z,12
2023-01-25T03:27:44.221Z,10
2023-01-25T03:28:44.220Z,11
2023-01-25T03:29:44.205Z,11
2023-01-25T03:30:44.269Z,13
2023-01-25T03:31:44.222Z,13
2023-01-25T03:32:44.206Z,18
2023-01-25T03:33:44.206Z,17
2023-01-25T03:34:44.221Z,16
2023-01-25T03:35:44.222Z,22
2023-01-25T03:36:44.206Z,17
2023-01-25T03:37:44.221Z,20
2023-01-25T03:38:44.221Z,18
2023-01-25T03:39:44.222Z,18
2023-01-25T03:40:44.206Z,18
2023-01-25T03:41:44.222Z,18
2023-01-25T03:42:44.222Z,20
2023-01-25T03:43:44.222Z,18
2023-01-25T03:44:44.207Z,19
2023-01-25T03:45:44.222Z,21
2023-01-25T03:46:44.223Z,21
2023-01-25T03:47:44.222Z,19
2023-01-25T03:48:44.207Z,19
2023-01-25T03:49:44.222Z,19
2023-01-25T03:50:44.223Z,19
2023-01-25T03:51:44.207Z,18
2023-01-25T03:52:44.207Z,16
2023-01-25T03:53:44.223Z,16
2023-01-25T03:54:44.223Z,19
2023-01-25T03:55:44.208Z,14
2023-01-25T03:56:44.288Z,15
2023-01-25T03:57:44.223Z,16
2023-01-25T03:58:44.223Z,16
2023-01-25T03:59:44.208Z,15
2023-01-25T04:00:44.223Z,16
2023-01-25T04:01:44.224Z,15
2023-01-25T04:02:44.224Z,13
2023-01-25T04:03:44.208Z,14
2023-01-25T04:04:44.224Z,15
2023-01-25T04:05:44.224Z,16
2023-01-25T04:06:44.224Z,15
2023-01-25T04:07:44.209Z,14
2023-01-25T04:08:44.224Z,14
2023-01-25T04:09:44.225Z,14
2023-01-25T04:10:44.209Z,13
2023-01-25T04:11:44.209Z,15
2023-01-25T04:12:44.224Z,12
2023-01-25T04:13:44.225Z,16
2023-01-25T04:14:44.209Z,14
2023-01-25T04:15:44.210Z,15
2023-01-25T04:16:44.225Z,19
2023-01-25T04:17:44.225Z,24
2023-01-25T04:18:44.210Z,23
2023-01-25T04:19:44.225Z,22
2023-01-25T04:20:44.225Z,18
2023-01-25T04:21:44.225Z,18
2023-01-25T04:22:44.210Z,18
2023-01-25T04:23:44.226Z,17
2023-01-25T04:24:44.226Z,16
2023-01-25T04:25:44.226Z,17
2023-01-25T04:26:44.210Z,18
2023-01-25T04:27:44.226Z,20
2023-01-25T04:28:44.227Z,18
2023-01-25T04:29:44.226Z,14
2023-01-25T04:30:44.211Z,16
2023-01-25T04:31:44.291Z,17
2023-01-25T04:32:44.227Z,17
2023-01-25T04:33:44.211Z,15
2023-01-25T04:34:44.211Z,15
2023-01-25T04:35:44.226Z,17
2023-01-25T04:36:44.227Z,15
2023-01-25T04:37:44.211Z,13
2023-01-25T04:38:44.227Z,16
2023-01-25T04:39:44.227Z,16
2023-01-25T04:40:44.227Z,14
2023-01-25T04:41:44.212Z,15
2023-01-25T04:42:44.227Z,17
2023-01-25T04:43:44.227Z,16
2023-01-25T04:44:44.227Z,11
2023-01-25T04:45:44.212Z,11
2023-01-25T04:46:44.227Z,15
2023-01-25T04:47:44.228Z,14
2023-01-25T04:48:44.228Z,13
2023-01-25T04:49:44.212Z,16
2023-01-25T04:50:44.228Z,12
2023-01-25T04:51:44.228Z,13
2023-01-25T04:52:44.213Z,14
2023-01-25T04:53:44.213Z,13
2023-01-25T04:54:44.228Z,15
2023-01-25T04:55:44.229Z,15
2023-01-25T04:56:44.213Z,15
2023-01-25T04:57:44.213Z,17
2023-01-25T04:58:44.229Z,16
2023-01-25T04:59:44.229Z,17
2023-01-25T05:00:44.213Z,22
2023-01-25T05:01:44.229Z,19
2023-01-25T05:02:44.229Z,16
2023-01-25T05:03:44.229Z,14
2023-01-25T05:04:44.214Z,17
2023-01-25T05:05:44.229Z,17
2023-01-25T05:06:44.271Z,14
2023-01-25T05:07:44.229Z,16
2023-01-25T05:08:44.214Z,15
2023-01-25T05:09:44.230Z,17
2023-01-25T05:10:44.230Z,15
2023-01-25T05:11:44.230Z,17
2023-01-25T05:12:44.215Z,16
2023-01-25T05:13:44.278Z,16
2023-01-25T05:14:44.231Z,24
2023-01-25T05:15:44.215Z,24
2023-01-25T05:16:44.215Z,24
2023-01-25T05:17:44.230Z,19
2023-01-25T05:18:44.231Z,17
2023-01-25T05:19:44.215Z,18
2023-01-25T05:20:44.231Z,19
2023-01-25T05:21:44.231Z,15
2023-01-25T05:22:44.231Z,16
2023-01-25T05:23:44.215Z,15
2023-01-25T05:24:44.231Z,15
2023-01-25T05:25:44.231Z,16
2023-01-25T05:26:44.231Z,14
2023-01-25T05:27:44.216Z,18
2023-01-25T05:28:44.231Z,11
2023-01-25T05:29:44.232Z,11
2023-01-25T05:30:44.231Z,14
2023-01-25T05:31:44.216Z,14
2023-01-25T05:32:44.232Z,16
2023-01-25T05:33:44.232Z,17
2023-01-25T05:34:44.216Z,15
2023-01-25T05:35:44.217Z,15
2023-01-25T05:36:44.232Z,18
2023-01-25T05:37:44.233Z,13
2023-01-25T05:38:44.217Z,13
2023-01-25T05:39:44.217Z,14
2023-01-25T05:40:44.232Z,15
2023-01-25T05:41:44.232Z,15
2023-01-25T05:42:44.217Z,18
2023-01-25T05:43:44.233Z,16
2023-01-25T05:44:44.233Z,17
2023-01-25T05:45:44.233Z,17
2023-01-25T05:46:44.218Z,14
2023-01-25T05:47:44.233Z,13
2023-01-25T05:48:44.234Z,16
2023-01-25T05:49:44.233Z,14
2023-01-25T05:50:44.218Z,14
2023-01-25T05:51:44.233Z,19
2023-01-25T05:52:44.234Z,23
2023-01-25T05:53:44.233Z,20
2023-01-25T05:54:44.218Z,19
2023-01-25T05:55:44.234Z,22
2023-01-25T05:56:44.234Z,20
2023-01-25T05:57:44.218Z,23
2023-01-25T05:58:44.219Z,24
2023-01-25T05:59:44.234Z,18
2023-01-25T06:00:44.235Z,22
2023-01-25T06:01:44.219Z,24
2023-01-25T06:02:44.234Z,23
2023-01-25T06:03:44.234Z,21
2023-01-25T06:04:44.234Z,24
2023-01-25T06:05:44.219Z,24
2023-01-25T06:06:44.235Z,26
2023-01-25T06:07:44.300Z,23
2023-01-25T06:08:44.235Z,18
2023-01-25T06:09:44.220Z,22
2023-01-25T06:10:44.235Z,22
2023-01-25T06:11:44.236Z,27
2023-01-25T06:12:44.235Z,28
2023-01-25T06:13:44.220Z,32
2023-01-25T06:14:44.284Z,36
2023-01-25T06:15:44.236Z,40
2023-01-25T06:16:44.220Z,42
2023-01-25T06:17:44.220Z,37
2023-01-25T06:18:44.236Z,35
2023-01-25T06:19:44.236Z,35
2023-01-25T06:21:44.236Z,28
2023-01-25T06:22:44.236Z,27
2023-01-25T06:23:44.236Z,28
2023-01-25T06:24:44.221Z,28
2023-01-25T06:25:49.622Z,29
2023-01-25T06:26:44.236Z,31
2023-01-25T06:27:44.237Z,32
2023-01-25T06:28:44.221Z,33
2023-01-25T06:29:44.237Z,30
2023-01-25T06:30:44.239Z,33
2023-01-25T06:31:44.237Z,38
2023-01-25T06:32:44.222Z,36
2023-01-25T06:33:44.237Z,43
2023-01-25T06:34:44.238Z,35
2023-01-25T06:35:44.237Z,35
2023-01-25T06:36:44.222Z,29
2023-01-25T06:37:44.237Z,29
2023-01-25T06:38:44.238Z,32
2023-01-25T06:39:44.222Z,37
2023-01-25T06:40:44.222Z,36
2023-01-25T06:41:44.238Z,35
2023-01-25T06:42:44.238Z,41
2023-01-25T06:43:44.223Z,37
2023-01-25T06:44:44.303Z,41
2023-01-25T06:45:44.238Z,40
2023-01-25T06:46:44.238Z,35
2023-01-25T06:47:44.223Z,32
2023-01-25T06:48:44.238Z,38
2023-01-25T06:49:44.238Z,39
2023-01-25T06:50:44.239Z,35
2023-01-25T06:51:44.223Z,39
2023-01-25T06:52:44.239Z,45
2023-01-25T06:53:44.240Z,42
2023-01-25T06:54:44.239Z,42
2023-01-25T06:55:44.224Z,46
2023-01-25T06:56:44.239Z,44
2023-01-25T06:57:44.240Z,46
2023-01-25T06:58:44.224Z,45
2023-01-25T06:59:44.224Z,40
2023-01-25T07:00:44.240Z,43
2023-01-25T07:01:44.240Z,45
2023-01-25T07:02:44.224Z,33
2023-01-25T07:03:44.225Z,34
2023-01-25T07:04:44.240Z,38
2023-01-25T07:05:44.240Z,32
2023-01-25T07:06:44.225Z,38
2023-01-25T07:07:44.240Z,39
2023-01-25T07:08:44.240Z,33
2023-01-25T07:09:44.240Z,27
2023-01-25T07:10:44.225Z,36
2023-01-25T07:11:44.241Z,39
2023-01-25T07:12:44.241Z,28
2023-01-25T07:13:44.241Z,28
2023-01-25T07:14:44.226Z,35
2023-01-25T07:15:44.241Z,39
2023-01-25T07:16:44.242Z,33
2023-01-25T07:17:44.241Z,34
2023-01-25T07:18:44.226Z,33
2023-01-25T07:19:44.241Z,36
2023-01-25T07:20:44.242Z,39
2023-01-25T07:21:44.226Z,44
2023-01-25T07:22:44.226Z,38
2023-01-25T07:23:44.242Z,37
2023-01-25T07:24:44.266Z,39
2023-01-25T07:26:44.242Z,44
2023-01-25T07:27:44.242Z,44
2023-01-25T07:28:44.242Z,40
2023-01-25T07:29:44.227Z,40
2023-01-25T07:30:44.242Z,43
2023-01-25T07:31:44.287Z,39
2023-01-25T07:32:44.243Z,34
2023-01-25T07:33:44.227Z,36
2023-01-25T07:34:44.243Z,36
2023-01-25T07:35:44.243Z,32
2023-01-25T07:36:44.243Z,37
2023-01-25T07:37:44.228Z,37
2023-01-25T07:38:44.243Z,36
2023-01-25T07:39:44.244Z,25
2023-01-25T07:40:44.228Z,36
2023-01-25T07:41:44.228Z,32
2023-01-25T07:42:44.243Z,25
2023-01-25T07:43:44.244Z,33
2023-01-25T07:44:44.228Z,44
2023-01-25T07:45:44.244Z,39
2023-01-25T07:46:44.244Z,41
2023-01-25T07:47:44.244Z,38
2023-01-25T07:48:44.229Z,41
2023-01-25T07:49:44.244Z,45
2023-01-25T07:50:44.244Z,47
2023-01-25T07:51:44.244Z,48
2023-01-25T07:52:44.229Z,60
2023-01-25T07:53:44.245Z,43
2023-01-25T07:54:44.245Z,47
2023-01-25T07:55:44.245Z,42
2023-01-25T07:56:44.229Z,52
2023-01-25T07:57:44.245Z,49
2023-01-25T07:58:44.245Z,54
2023-01-25T07:59:44.230Z,49
2023-01-25T08:00:44.230Z,52
2023-01-25T08:01:44.245Z,52
2023-01-25T08:02:44.246Z,46
2023-01-25T08:03:44.230Z,40
2023-01-25T08:04:44.286Z,53
2023-01-25T08:05:44.246Z,48
2023-01-25T08:06:44.246Z,44
2023-01-25T08:07:44.231Z,42
2023-01-25T08:08:44.246Z,41
2023-01-25T08:09:44.246Z,43
2023-01-25T08:10:44.246Z,39
2023-01-25T08:11:44.231Z,51
2023-01-25T08:12:44.246Z,42
2023-01-25T08:13:44.247Z,40
2023-01-25T08:14:44.246Z,37
2023-01-25T08:15:44.231Z,41
2023-01-25T08:16:44.247Z,42
2023-01-25T08:17:44.247Z,48
2023-01-25T08:18:44.247Z,48
2023-01-25T08:19:44.232Z,48
2023-01-25T08:20:44.247Z,50
2023-01-25T08:21:44.248Z,42
2023-01-25T08:22:44.232Z,34
2023-01-25T08:23:44.232Z,43
2023-01-25T08:24:44.248Z,41
2023-01-25T08:25:44.272Z,34
2023-01-25T08:26:44.232Z,35
2023-01-25T08:27:44.248Z,40
2023-01-25T08:28:44.248Z,42
2023-01-25T08:29:44.248Z,42
2023-01-25T08:30:44.233Z,45
2023-01-25T08:31:44.248Z,46
2023-01-25T08:32:44.248Z,38
2023-01-25T08:33:44.248Z,47
2023-01-25T08:34:44.233Z,48
2023-01-25T08:35:44.248Z,49
2023-01-25T08:36:44.275Z,45
2023-01-25T08:37:44.249Z,48
2023-01-25T08:38:44.234Z,54
2023-01-25T08:39:44.249Z,53
2023-01-25T08:40:44.249Z,41
2023-01-25T08:41:44.249Z,48
2023-01-25T08:42:44.234Z,49
2023-01-25T08:43:44.298Z,47
2023-01-25T08:44:44.250Z,49
2023-01-25T08:45:44.234Z,56
2023-01-25T08:46:44.234Z,47
2023-01-25T08:47:44.249Z,44
2023-01-25T08:48:44.250Z,38
2023-01-25T08:49:44.234Z,44
2023-01-25T08:50:44.250Z,38
2023-01-25T08:51:44.250Z,45
2023-01-25T08:52:44.250Z,43
2023-01-25T08:53:44.235Z,45
2023-01-25T08:54:44.250Z,43
2023-01-25T08:55:44.250Z,44
2023-01-25T08:56:44.250Z,46
2023-01-25T08:57:44.235Z,48
2023-01-25T08:58:44.251Z,52
2023-01-25T08:59:44.251Z,40
2023-01-25T09:00:44.251Z,46
2023-01-25T09:01:44.236Z,53
2023-01-25T09:02:44.251Z,53
2023-01-25T09:03:44.252Z,47
2023-01-25T09:04:44.236Z,47
2023-01-25T09:05:44.236Z,55
2023-01-25T09:06:44.251Z,51
2023-01-25T09:07:44.252Z,53
2023-01-25T09:08:44.236Z,50
2023-01-25T09:09:44.236Z,59
2023-01-25T09:10:44.252Z,54
2023-01-25T09:11:44.252Z,53
2023-01-25T09:12:44.237Z,54
2023-01-25T09:13:44.252Z,51
2023-01-25T09:14:44.252Z,60
2023-01-25T09:15:44.252Z,61
2023-01-25T09:16:44.237Z,48
2023-01-25T09:17:44.252Z,59
2023-01-25T09:18:44.253Z,55
2023-01-25T09:19:44.252Z,56
2023-01-25T09:20:44.237Z,56
2023-01-25T09:21:44.253Z,59
2023-01-25T09:22:44.253Z,61
2023-01-25T09:23:44.253Z,60
2023-01-25T09:24:44.238Z,61
2023-01-25T09:25:44.253Z,50
2023-01-25T09:26:44.254Z,56
2023-01-25T09:27:44.238Z,44
2023-01-25T09:28:44.238Z,44
2023-01-25T09:29:44.253Z,54
2023-01-25T09:30:44.254Z,50
2023-01-25T09:31:44.238Z,36
2023-01-25T09:32:44.254Z,42
2023-01-25T09:33:44.254Z,44
2023-01-25T09:34:44.254Z,31
2023-01-25T09:35:44.239Z,27
2023-01-25T09:36:44.254Z,35
2023-01-25T09:37:44.254Z,40
2023-01-25T09:38:44.254Z,42
2023-01-25T09:39:44.254Z,48
2023-01-25T09:40:44.254Z,46
2023-01-25T09:41:44.255Z,46
2023-01-25T09:42:44.255Z,44
2023-01-25T09:43:44.239Z,44
2023-01-25T09:44:44.255Z,48
2023-01-25T09:45:44.256Z,53
2023-01-25T09:46:44.255Z,54
2023-01-25T09:47:44.240Z,42
2023-01-25T09:48:44.255Z,48
2023-01-25T09:49:44.256Z,44
2023-01-25T09:50:44.240Z,38
2023-01-25T09:51:44.240Z,42
2023-01-25T09:52:44.256Z,45
2023-01-25T09:53:44.256Z,49
2023-01-25T09:54:44.240Z,58
2023-01-25T09:55:44.305Z,54
2023-01-25T09:56:44.256Z,47
2023-01-25T09:57:44.256Z,46
2023-01-25T09:58:44.241Z,41
2023-01-25T09:59:44.256Z,40
2023-01-25T10:00:44.256Z,36
2023-01-25T10:01:44.256Z,40
2023-01-25T10:02:44.256Z,43
2023-01-25T10:03:44.257Z,39
2023-01-25T10:04:44.257Z,35
2023-01-25T10:05:44.257Z,34
2023-01-25T10:06:44.242Z,44
2023-01-25T10:07:44.257Z,43
2023-01-25T10:08:44.258Z,40
2023-01-25T10:09:44.242Z,49
2023-01-25T10:10:44.242Z,41
2023-01-25T10:11:44.257Z,44
2023-01-25T10:12:44.258Z,41
2023-01-25T10:13:44.242Z,43
2023-01-25T10:14:44.242Z,38
2023-01-25T10:15:44.258Z,43
2023-01-25T10:16:44.258Z,47
2023-01-25T10:17:44.243Z,44
2023-01-25T10:18:44.258Z,39
2023-01-25T10:19:44.258Z,45
2023-01-25T10:20:44.258Z,56
2023-01-25T10:21:44.243Z,47
2023-01-25T10:22:44.258Z,49
2023-01-25T10:23:44.259Z,49
2023-01-25T10:24:44.258Z,56
2023-01-25T10:25:44.243Z,46
2023-01-25T10:26:44.259Z,48
2023-01-25T10:27:44.260Z,44
2023-01-25T10:28:44.259Z,58
2023-01-25T10:29:44.244Z,47
2023-01-25T10:30:44.259Z,51
2023-01-25T10:31:44.260Z,48
2023-01-25T10:32:44.244Z,53
2023-01-25T10:33:44.244Z,57
2023-01-25T10:34:44.259Z,56
2023-01-25T10:35:44.284Z,39
2023-01-25T10:36:44.244Z,47
2023-01-25T10:37:44.260Z,57
2023-01-25T10:38:44.260Z,55
2023-01-25T10:39:44.260Z,48
2023-01-25T10:40:44.245Z,52
2023-01-25T10:41:44.260Z,62
2023-01-25T10:42:44.286Z,58
2023-01-25T10:43:44.260Z,55
2023-01-25T10:44:44.245Z,64
2023-01-25T10:45:44.260Z,70
2023-01-25T10:46:44.261Z,61
2023-01-25T10:47:44.261Z,65
2023-01-25T10:48:44.245Z,60
2023-01-25T10:49:44.261Z,50
2023-01-25T10:50:44.262Z,46
2023-01-25T10:51:44.246Z,44
2023-01-25T10:52:44.246Z,48
2023-01-25T10:53:44.261Z,49
2023-01-25T10:54:44.262Z,53
2023-01-25T10:55:44.246Z,61
2023-01-25T10:56:44.246Z,52
2023-01-25T10:57:44.262Z,55
2023-01-25T10:58:44.262Z,53
2023-01-25T10:59:44.246Z,47
2023-01-25T11:00:44.262Z,61
2023-01-25T11:01:44.262Z,53
2023-01-25T11:02:44.262Z,52
2023-01-25T11:03:44.247Z,43
2023-01-25T11:04:44.262Z,50
2023-01-25T11:05:44.263Z,48
2023-01-25T11:06:44.262Z,48
2023-01-25T11:07:44.247Z,70
2023-01-25T11:08:44.263Z,63
2023-01-25T11:09:44.263Z,68
2023-01-25T11:10:44.263Z,71
2023-01-25T11:11:44.248Z,77
2023-01-25T11:12:44.263Z,71
2023-01-25T11:13:44.264Z,71
2023-01-25T11:14:44.248Z,77
2023-01-25T11:15:44.248Z,99
2023-01-25T11:16:44.263Z,88
2023-01-25T11:17:44.288Z,82
2023-01-25T11:18:44.249Z,77
2023-01-25T11:19:44.264Z,71
2023-01-25T11:20:44.264Z,63
2023-01-25T11:21:44.264Z,65
2023-01-25T11:22:44.249Z,55
2023-01-25T11:23:44.264Z,66
2023-01-25T11:24:44.266Z,61
2023-01-25T11:25:44.264Z,63
2023-01-25T11:26:44.249Z,56
2023-01-25T11:27:44.264Z,44
2023-01-25T11:28:44.265Z,51
2023-01-25T11:29:44.265Z,46
2023-01-25T11:30:44.249Z,48
2023-01-25T11:31:44.313Z,59
2023-01-25T11:32:44.265Z,58
2023-01-25T11:33:44.250Z,56
2023-01-25T11:34:44.250Z,66
2023-01-25T11:35:44.265Z,75
2023-01-25T11:36:44.266Z,69
2023-01-25T11:37:44.250Z,78
2023-01-25T11:38:44.266Z,93
2023-01-25T11:39:44.266Z,78
2023-01-25T11:40:44.266Z,66
2023-01-25T11:41:44.251Z,60
2023-01-25T11:42:44.266Z,61
2023-01-25T11:43:44.266Z,67
2023-01-25T11:44:44.266Z,61
2023-01-25T11:45:44.251Z,76
2023-01-25T11:46:44.266Z,52
2023-01-25T11:47:44.268Z,64
2023-01-25T11:48:44.266Z,70
2023-01-25T11:49:44.251Z,59
2023-01-25T11:50:44.267Z,58
2023-01-25T11:51:44.268Z,54
2023-01-25T11:52:44.267Z,60
2023-01-25T11:53:44.252Z,61
2023-01-25T11:54:44.276Z,48
2023-01-25T11:55:44.268Z,53
2023-01-25T11:56:44.252Z,59
2023-01-25T11:57:44.252Z,59
2023-01-25T11:58:44.267Z,50
2023-01-25T11:59:44.268Z,55
2023-01-25T12:00:44.252Z,69
2023-01-25T12:01:44.268Z,67
2023-01-25T12:02:44.268Z,62
2023-01-25T12:03:44.268Z,59
2023-01-25T12:04:44.253Z,64
2023-01-25T12:05:44.268Z,69
2023-01-25T12:06:44.268Z,62
2023-01-25T12:07:44.268Z,56
2023-01-25T12:08:44.253Z,57
2023-01-25T12:09:44.268Z,53
2023-01-25T12:10:44.269Z,53
2023-01-25T12:11:44.269Z,63
2023-01-25T12:12:44.253Z,56
2023-01-25T12:13:44.269Z,82
2023-01-25T12:14:44.269Z,67
2023-01-25T12:15:44.254Z,69
2023-01-25T12:16:44.254Z,66
2023-01-25T12:17:44.269Z,68
2023-01-25T12:18:44.270Z,65
2023-01-25T12:19:44.254Z,70
2023-01-25T12:20:44.254Z,64
2023-01-25T12:21:44.269Z,59
2023-01-25T12:22:44.270Z,56
2023-01-25T12:23:44.254Z,60
2023-01-25T12:24:44.270Z,58
2023-01-25T12:25:44.270Z,64
2023-01-25T12:26:44.270Z,70
2023-01-25T12:27:44.255Z,79
2023-01-25T12:28:44.271Z,60
2023-01-25T12:29:44.271Z,63
2023-01-25T12:30:44.270Z,59
2023-01-25T12:31:44.255Z,58
2023-01-25T12:32:44.271Z,67
2023-01-25T12:33:44.272Z,56
2023-01-25T12:34:44.271Z,63
2023-01-25T12:35:44.256Z,73
2023-01-25T12:36:44.271Z,77
2023-01-25T12:37:44.272Z,64
2023-01-25T12:38:44.256Z,56
2023-01-25T12:39:44.256Z,48
2023-01-25T12:40:44.271Z,54
2023-01-25T12:41:44.272Z,61
2023-01-25T12:42:44.256Z,59
2023-01-25T12:43:44.272Z,62
2023-01-25T12:44:44.272Z,63
2023-01-25T12:45:44.272Z,74
2023-01-25T12:46:44.257Z,74
2023-01-25T12:47:44.272Z,66
2023-01-25T12:48:44.272Z,63
2023-01-25T12:49:44.272Z,55
2023-01-25T12:50:44.257Z,60
2023-01-25T12:51:44.272Z,55
2023-01-25T12:52:44.273Z,55
2023-01-25T12:53:44.273Z,52
2023-01-25T12:54:44.257Z,65
2023-01-25T12:55:44.273Z,52
2023-01-25T12:56:44.273Z,57
2023-01-25T12:57:44.274Z,55
2023-01-25T12:58:44.258Z,57
2023-01-25T12:59:44.273Z,53
2023-01-25T13:00:44.274Z,63
2023-01-25T13:01:44.258Z,39
2023-01-25T13:02:44.258Z,48
2023-01-25T13:03:44.273Z,38
2023-01-25T13:04:44.338Z,35
2023-01-25T13:05:44.259Z,43
2023-01-25T13:06:44.274Z,40
2023-01-25T13:07:44.274Z,42
2023-01-25T13:08:44.274Z,36
2023-01-25T13:09:44.259Z,41
2023-01-25T13:10:44.274Z,40
2023-01-25T13:11:44.274Z,30
2023-01-25T13:12:44.274Z,31
2023-01-25T13:13:44.259Z,35
2023-01-25T13:14:44.275Z,37
2023-01-25T13:15:44.276Z,40
2023-01-25T13:16:44.275Z,46
2023-01-25T13:17:44.260Z,40
2023-01-25T13:18:44.275Z,43
2023-01-25T13:19:44.276Z,55
2023-01-25T13:20:44.260Z,55
2023-01-25T13:21:44.260Z,56
2023-01-25T13:22:44.275Z,50
2023-01-25T13:23:44.276Z,56
2023-01-25T13:24:44.260Z,58
2023-01-25T13:25:44.260Z,61
2023-01-25T13:26:44.276Z,62
2023-01-25T13:27:44.276Z,53
2023-01-25T13:28:44.261Z,53
2023-01-25T13:29:44.276Z,62
2023-01-25T13:30:44.276Z,61
2023-01-25T13:31:44.276Z,58
2023-01-25T13:32:44.261Z,64
2023-01-25T13:33:44.277Z,62
2023-01-25T13:34:44.319Z,66
2023-01-25T13:35:44.277Z,63
2023-01-25T13:36:44.261Z,58
2023-01-25T13:37:44.277Z,53
2023-01-25T13:38:44.277Z,55
2023-01-25T13:39:44.277Z,49
2023-01-25T13:40:44.262Z,54
2023-01-25T13:41:44.277Z,57
2023-01-25T13:42:44.278Z,60
2023-01-25T13:43:44.262Z,51
2023-01-25T13:44:44.262Z,46
2023-01-25T13:45:44.277Z,66
2023-01-25T13:46:44.278Z,61
2023-01-25T13:47:44.262Z,61
2023-01-25T13:48:44.262Z,58
2023-01-25T13:49:44.278Z,66
2023-01-25T13:50:44.278Z,69
2023-01-25T13:51:44.263Z,55
2023-01-25T13:52:44.278Z,43
2023-01-25T13:53:44.278Z,39
2023-01-25T13:54:44.278Z,40
2023-01-25T13:55:44.263Z,45
2023-01-25T13:56:44.279Z,42
2023-01-25T13:57:44.279Z,47
2023-01-25T13:58:44.279Z,56
2023-01-25T13:59:44.264Z,65
2023-01-25T14:00:44.279Z,57
2023-01-25T14:01:44.280Z,48
2023-01-25T14:02:44.279Z,63
2023-01-25T14:03:44.264Z,64
2023-01-25T14:04:44.279Z,65
2023-01-25T14:05:44.280Z,57
2023-01-25T14:06:44.264Z,53
2023-01-25T14:07:44.264Z,54
2023-01-25T14:08:44.280Z,64
2023-01-25T14:09:44.305Z,70
2023-01-25T14:10:44.265Z,51
2023-01-25T14:11:44.280Z,43
2023-01-25T14:12:44.280Z,52
2023-01-25T14:13:44.280Z,56
2023-01-25T14:14:44.265Z,58
2023-01-25T14:15:44.280Z,59
2023-01-25T14:16:44.323Z,54
2023-01-25T14:17:44.280Z,56
2023-01-25T14:18:44.265Z,50